Copper Creek, Canada
Current Conditions -  °F | °C
As of 12:00 PM on Monday 24 Nov 2014 (Local Time) from CYKA Reporting Station
Overcast Overcast  
Wind Chill: -5°   Ceiling: 3000
Heat Index:   Visibility: 25mi
Dew Point:   Wind: 18mph
Humidity: 93%   Direction: 100°E
Pressure: 30.11"   Gusts: NA
Location:  50.8°N, 120.76°W
Report Text: CYKA 242000Z 10016KT 25SM FEW008 BKN030 OVC100 01/M00 A3011 RMK SF1SC5AC2 PRESFR SLP214
Loading
Personal Weather Stations






























Interactive Weather Map New forecast layout! Learn more

10-Day Weather Forecast

Advertisements
Track Severe Weather on mobile